Time;durP1;ratioP1;P1;durP2;ratioP2;P2;SDS_P1;SDS_P2;PMS_P1;PMS_P2;Temp;Humidity;BMP_temperature;BMP_pressure;BME280_temperature;BME280_humidity;BME280_pressure;Samples;Min_cycle;Max_cycle;Signal;HPM_P1;HPM_P2
2022/09/25 00:01:37;;;;;;;2.58;0.90;;;16.80;99.90;;;;;;5065612;28;20029;-73
2022/09/25 00:04:04;;;;;;;3.08;1.00;;;16.80;99.90;;;;;;5059851;28;20592;-72
2022/09/25 00:06:32;;;;;;;2.55;1.00;;;16.80;99.90;;;;;;5060201;28;20059;-73
2022/09/25 00:09:00;;;;;;;2.53;0.90;;;16.90;99.90;;;;;;5060355;28;20086;-72
2022/09/25 00:11:31;;;;;;;3.22;1.10;;;17.10;99.90;;;;;;5059792;28;20033;-72
2022/09/25 00:14:00;;;;;;;4.60;1.20;;;17.20;99.90;;;;;;5060553;28;20033;-72
2022/09/25 00:16:29;;;;;;;2.67;1.00;;;17.30;99.90;;;;;;5074717;28;20041;-72
2022/09/25 00:21:41;;;;;;;3.85;1.20;;;17.40;99.90;;;;;;5041997;28;20057;-72
2022/09/25 00:24:11;;;;;;;4.18;1.08;;;17.50;99.90;;;;;;5063720;28;20062;-73
2022/09/25 00:26:39;;;;;;;3.05;1.00;;;17.60;99.90;;;;;;5059768;28;20045;-73
2022/09/25 00:29:07;;;;;;;2.80;1.00;;;17.60;99.90;;;;;;5059407;28;20464;-72
2022/09/25 00:31:32;;;;;;;2.50;0.98;;;17.70;99.90;;;;;;5059201;28;20044;-72
2022/09/25 00:34:03;;;;;;;3.78;1.10;;;17.70;99.90;;;;;;5060492;28;20107;-73
2022/09/25 00:36:30;;;;;;;2.78;0.98;;;17.80;99.90;;;;;;5057513;28;20060;-72
2022/09/25 00:38:57;;;;;;;3.03;1.00;;;17.80;99.90;;;;;;5071774;28;20029;-73
2022/09/25 00:41:24;;;;;;;3.47;1.05;;;17.80;99.90;;;;;;5057648;28;20036;-73
2022/09/25 00:43:56;;;;;;;4.57;1.30;;;17.90;99.90;;;;;;5056743;28;20037;-73
2022/09/25 00:46:34;;;;;;;2.35;1.10;;;17.90;99.90;;;;;;5057843;28;20511;-72
2022/09/25 00:48:59;;;;;;;2.40;1.10;;;18.00;99.90;;;;;;5060067;28;20092;-72
2022/09/25 00:51:31;;;;;;;3.38;1.15;;;18.10;99.90;;;;;;5049435;28;20482;-72
2022/09/25 00:54:00;;;;;;;3.50;1.30;;;18.20;99.90;;;;;;5062375;28;20041;-72
2022/09/25 00:56:30;;;;;;;2.45;0.93;;;18.10;99.90;;;;;;5059340;28;20032;-72
2022/09/25 00:58:56;;;;;;;2.90;0.82;;;18.20;99.90;;;;;;5062526;28;20028;-72
2022/09/25 01:01:22;;;;;;;2.50;0.90;;;18.10;99.90;;;;;;5062557;28;20066;-73
2022/09/25 01:03:48;;;;;;;2.97;1.00;;;18.00;99.90;;;;;;5057214;28;20036;-72
2022/09/25 01:06:16;;;;;;;2.47;1.02;;;17.90;99.90;;;;;;5076115;28;20607;-72
2022/09/25 01:08:44;;;;;;;2.40;0.80;;;17.80;99.90;;;;;;5057739;28;20036;-72
2022/09/25 01:11:09;;;;;;;3.17;0.80;;;17.70;99.90;;;;;;5055598;28;20041;-72
2022/09/25 01:13:37;;;;;;;1.95;0.70;;;17.60;99.90;;;;;;5062392;28;21924;-73
2022/09/25 01:16:18;;;;;;;3.28;0.68;;;17.60;99.90;;;;;;5056406;28;20029;-73
2022/09/25 01:19:12;;;;;;;1.42;0.50;;;17.50;99.90;;;;;;5054223;28;20060;-72
2022/09/25 01:21:57;;;;;;;2.78;0.60;;;17.50;99.90;;;;;;5053771;28;20040;-71
2022/09/25 01:24:48;;;;;;;1.77;0.60;;;17.50;99.90;;;;;;5074707;28;20202;-72
2022/09/25 01:27:41;;;;;;;2.58;0.70;;;17.40;99.90;;;;;;5063128;28;20041;-71
2022/09/25 01:30:13;;;;;;;1.98;0.80;;;17.30;99.90;;;;;;5056657;28;20476;-72
2022/09/25 01:32:42;;;;;;;2.30;0.63;;;17.30;99.90;;;;;;5059756;28;20045;-72
2022/09/25 01:35:18;;;;;;;2.60;0.90;;;17.20;99.90;;;;;;5061906;28;20028;-73
2022/09/25 01:37:46;;;;;;;2.83;1.00;;;17.20;99.90;;;;;;5060048;28;20193;-72
2022/09/25 01:40:18;;;;;;;2.72;0.93;;;17.20;99.90;;;;;;5060664;28;20037;-72
2022/09/25 01:42:54;;;;;;;2.60;1.00;;;17.10;99.90;;;;;;5056470;28;20472;-72
2022/09/25 01:45:52;;;;;;;3.15;0.93;;;17.10;99.90;;;;;;5061533;28;20120;-72
2022/09/25 01:48:23;;;;;;;2.22;1.00;;;17.10;99.90;;;;;;5061593;28;20125;-71
2022/09/25 01:51:03;;;;;;;3.30;1.20;;;17.10;99.90;;;;;;5058594;28;20147;-71
2022/09/25 01:53:35;;;;;;;3.28;1.15;;;17.20;99.90;;;;;;5067377;28;20182;-71
2022/09/25 01:56:06;;;;;;;3.40;1.10;;;17.20;99.90;;;;;;5061650;28;20033;-71
2022/09/25 01:58:45;;;;;;;2.40;0.88;;;17.10;99.90;;;;;;5070813;28;20124;-70
2022/09/25 02:01:21;;;;;;;2.80;1.20;;;17.10;99.90;;;;;;5069518;28;20498;-70
2022/09/25 02:04:15;;;;;;;3.88;1.42;;;17.10;99.90;;;;;;5046795;28;20033;-71
2022/09/25 02:06:45;;;;;;;3.30;1.17;;;17.00;99.90;;;;;;5057348;28;20535;-71
2022/09/25 02:09:31;;;;;;;3.75;1.60;;;17.00;99.90;;;;;;5064762;28;20052;-71
2022/09/25 02:12:03;;;;;;;3.63;1.33;;;17.00;99.90;;;;;;5060822;28;20052;-72
2022/09/25 02:14:38;;;;;;;4.15;1.60;;;16.90;99.90;;;;;;5059555;28;20123;-71
2022/09/25 02:17:09;;;;;;;5.30;1.80;;;17.00;99.90;;;;;;5059840;28;20041;-71
2022/09/25 02:22:33;;;;;;;4.00;1.40;;;17.20;99.90;;;;;;5055658;28;20048;-71
2022/09/25 02:25:51;;;;;;;3.58;1.40;;;17.20;99.90;;;;;;5058549;28;20041;-72
2022/09/25 02:28:18;;;;;;;4.13;1.38;;;17.30;99.90;;;;;;5051639;28;20037;-71
2022/09/25 02:30:47;;;;;;;4.55;1.35;;;17.30;99.90;;;;;;5059957;28;20506;-71
2022/09/25 02:33:13;;;;;;;3.30;1.40;;;17.40;99.90;;;;;;5063326;28;20064;-71
2022/09/25 02:35:41;;;;;;;4.05;1.77;;;17.40;99.90;;;;;;5060593;28;20037;-72
2022/09/25 02:38:07;;;;;;;4.95;1.73;;;17.40;99.90;;;;;;5058673;28;20029;-71
2022/09/25 02:41:00;;;;;;;4.57;1.80;;;17.40;99.90;;;;;;5062985;28;20032;-71
2022/09/25 02:43:49;;;;;;;6.32;2.28;;;17.40;99.90;;;;;;5056329;28;20041;-71
2022/09/25 02:46:35;;;;;;;4.35;1.75;;;17.40;99.90;;;;;;5059731;28;20025;-71
2022/09/25 02:49:50;;;;;;;3.95;2.00;;;17.60;99.90;;;;;;5074496;28;20056;-70
2022/09/25 02:52:51;;;;;;;3.65;1.65;;;17.60;99.90;;;;;;4963679;28;20057;-71
2022/09/25 02:55:45;;;;;;;3.83;1.90;;;17.60;99.90;;;;;;4975299;28;20129;-71
2022/09/25 02:58:47;;;;;;;3.30;1.42;;;17.60;99.90;;;;;;5040945;28;20924;-71
2022/09/25 03:01:16;;;;;;;4.78;1.80;;;17.70;99.90;;;;;;5072171;28;20369;-71
2022/09/25 03:03:45;;;;;;;4.90;2.10;;;17.80;99.90;;;;;;5077176;28;20029;-71
2022/09/25 03:06:12;;;;;;;4.53;2.13;;;17.80;99.90;;;;;;5079198;28;20048;-71
2022/09/25 03:08:45;;;;;;;5.22;2.42;;;17.80;99.90;;;;;;5059232;28;20112;-71
2022/09/25 03:11:14;;;;;;;6.82;2.40;;;17.80;99.90;;;;;;5058558;28;20032;-71
2022/09/25 03:13:41;;;;;;;5.90;2.45;;;17.80;99.90;;;;;;5058106;28;20472;-71
2022/09/25 03:16:13;;;;;;;4.50;2.20;;;17.80;99.90;;;;;;5061701;28;20041;-71
2022/09/25 03:18:38;;;;;;;5.00;2.72;;;17.80;99.90;;;;;;5060105;28;20079;-71
2022/09/25 03:21:04;;;;;;;5.60;2.60;;;17.70;99.90;;;;;;5048350;28;20060;-71
2022/09/25 03:23:31;;;;;;;6.07;2.28;;;17.70;99.90;;;;;;5060081;28;20166;-71
2022/09/25 03:25:57;;;;;;;4.28;2.20;;;17.70;99.90;;;;;;5072527;28;20037;-71
2022/09/25 03:28:23;;;;;;;5.18;2.15;;;17.70;99.90;;;;;;5051852;28;20041;-70
2022/09/25 03:31:01;;;;;;;5.07;2.08;;;17.70;99.90;;;;;;5041036;28;20049;-71
2022/09/25 03:33:29;;;;;;;5.07;2.42;;;17.60;99.90;;;;;;5049867;28;20442;-69
2022/09/25 03:36:05;;;;;;;4.25;1.80;;;17.60;99.90;;;;;;5065749;28;20124;-70
2022/09/25 03:38:31;;;;;;;5.10;2.15;;;17.50;99.90;;;;;;5045687;28;20029;-70
2022/09/25 03:40:57;;;;;;;4.85;2.10;;;17.50;99.90;;;;;;5052741;28;20033;-70
2022/09/25 03:43:22;;;;;;;5.53;2.35;;;17.50;99.90;;;;;;5059131;28;20056;-71
2022/09/25 03:45:48;;;;;;;4.07;1.85;;;17.50;99.90;;;;;;5073592;28;20032;-70
2022/09/25 03:48:14;;;;;;;4.22;1.58;;;17.50;99.90;;;;;;5065434;28;20070;-74
2022/09/25 03:50:40;;;;;;;3.95;1.65;;;17.50;99.90;;;;;;5063899;28;20048;-74
2022/09/25 03:53:07;;;;;;;5.45;1.77;;;17.50;99.90;;;;;;5057968;28;20036;-75
2022/09/25 03:55:33;;;;;;;4.43;2.05;;;17.50;99.90;;;;;;5062095;28;20044;-74
2022/09/25 03:57:58;;;;;;;4.50;1.67;;;17.50;99.90;;;;;;5061810;28;20575;-74
2022/09/25 04:00:24;;;;;;;4.00;1.55;;;17.60;99.90;;;;;;5058830;28;20040;-74
2022/09/25 04:02:50;;;;;;;4.75;1.67;;;17.60;99.90;;;;;;5058021;28;20036;-74
2022/09/25 04:05:18;;;;;;;5.30;1.85;;;17.60;99.90;;;;;;5074413;28;20431;-74
2022/09/25 04:07:44;;;;;;;5.55;1.60;;;17.70;99.90;;;;;;5058880;28;20127;-73
2022/09/25 04:10:10;;;;;;;3.00;1.30;;;17.70;99.90;;;;;;5053708;28;20125;-73
2022/09/25 04:12:36;;;;;;;4.70;1.48;;;17.70;99.90;;;;;;5062092;28;20048;-74
2022/09/25 04:15:02;;;;;;;3.00;1.33;;;17.70;99.90;;;;;;5055110;28;20074;-74
2022/09/25 04:17:28;;;;;;;4.95;1.50;;;17.80;99.90;;;;;;5061367;28;20047;-74
2022/09/25 04:19:54;;;;;;;4.35;1.45;;;17.80;99.90;;;;;;5076752;28;20040;-75
2022/09/25 04:22:20;;;;;;;6.25;1.50;;;17.80;99.90;;;;;;5061363;28;20131;-74
2022/09/25 04:24:49;;;;;;;3.35;1.40;;;17.70;99.90;;;;;;5052880;28;20033;-74
2022/09/25 04:27:17;;;;;;;3.90;1.30;;;17.70;99.90;;;;;;5035939;28;20040;-74
2022/09/25 04:29:44;;;;;;;3.55;1.67;;;17.70;99.90;;;;;;5040063;28;20270;-74
2022/09/25 04:34:54;;;;;;;4.72;1.55;;;17.50;99.90;;;;;;5056233;28;20170;-75
2022/09/25 04:37:25;;;;;;;5.35;1.45;;;17.50;99.90;;;;;;5058961;28;20541;-74
2022/09/25 04:39:52;;;;;;;5.20;1.42;;;17.50;99.90;;;;;;5059166;28;20032;-74
2022/09/25 04:42:23;;;;;;;4.13;1.45;;;17.50;99.90;;;;;;5055933;28;20048;-74
2022/09/25 04:44:53;;;;;;;4.38;1.45;;;17.50;99.90;;;;;;5062074;28;20561;-74
2022/09/25 04:47:23;;;;;;;3.75;1.42;;;17.30;99.90;;;;;;5040813;28;20036;-73
2022/09/25 04:49:49;;;;;;;4.50;1.50;;;17.30;99.90;;;;;;5060246;28;20115;-74
2022/09/25 04:52:16;;;;;;;4.10;1.40;;;17.30;99.90;;;;;;5071560;28;20500;-74
2022/09/25 04:54:42;;;;;;;4.28;1.42;;;17.30;99.90;;;;;;5061949;28;20504;-74
2022/09/25 04:57:10;;;;;;;5.13;1.73;;;17.20;99.90;;;;;;5059350;28;20040;-75
2022/09/25 04:59:36;;;;;;;3.83;1.75;;;17.10;99.90;;;;;;5059272;28;20073;-74
2022/09/25 05:02:02;;;;;;;4.10;1.63;;;17.10;99.90;;;;;;5055689;28;20942;-74
2022/09/25 05:04:28;;;;;;;3.47;1.30;;;17.00;99.90;;;;;;5042164;28;20037;-74
2022/09/25 05:06:54;;;;;;;3.67;1.15;;;16.90;99.90;;;;;;5040731;28;20050;-75
2022/09/25 05:09:19;;;;;;;3.95;1.20;;;16.90;99.90;;;;;;5038309;28;20056;-75
2022/09/25 05:11:46;;;;;;;3.88;1.30;;;16.80;99.90;;;;;;5054985;28;20029;-75
2022/09/25 05:14:12;;;;;;;2.95;1.08;;;16.70;99.90;;;;;;5069291;28;20942;-75
2022/09/25 05:16:38;;;;;;;3.90;1.10;;;16.60;99.90;;;;;;5062455;28;20032;-74
2022/09/25 05:19:04;;;;;;;3.53;1.17;;;16.50;99.90;;;;;;5056505;28;20059;-74
2022/09/25 05:21:31;;;;;;;3.00;1.10;;;16.50;99.90;;;;;;5056403;28;20516;-74
2022/09/25 05:23:57;;;;;;;3.50;1.10;;;16.50;99.90;;;;;;5058005;28;20047;-73
2022/09/25 05:26:23;;;;;;;3.97;1.35;;;16.50;99.90;;;;;;5064199;28;20044;-74
2022/09/25 05:28:49;;;;;;;3.40;1.20;;;16.50;99.90;;;;;;5058044;28;20047;-74
2022/09/25 05:31:16;;;;;;;5.18;1.60;;;16.60;99.90;;;;;;5058282;28;20123;-74
2022/09/25 05:33:42;;;;;;;4.60;1.27;;;16.60;99.90;;;;;;5059346;28;20098;-74
2022/09/25 05:36:09;;;;;;;3.25;1.30;;;16.60;99.90;;;;;;5064011;28;20036;-74
2022/09/25 05:38:37;;;;;;;4.10;0.95;;;16.60;99.90;;;;;;5061940;28;20491;-75
2022/09/25 05:41:04;;;;;;;3.22;1.13;;;16.60;99.90;;;;;;5067206;28;20517;-74
2022/09/25 05:43:33;;;;;;;5.22;1.63;;;16.60;99.90;;;;;;5060289;28;20043;-75
2022/09/25 05:45:59;;;;;;;3.05;1.30;;;16.60;99.90;;;;;;5066574;28;20055;-74
2022/09/25 05:48:25;;;;;;;4.95;1.40;;;16.60;99.90;;;;;;5063325;28;20036;-74
2022/09/25 05:50:55;;;;;;;2.35;1.10;;;16.60;99.90;;;;;;5073355;28;20392;-74
2022/09/25 05:53:21;;;;;;;3.22;1.08;;;16.60;99.90;;;;;;5057726;28;20095;-74
2022/09/25 05:55:56;;;;;;;5.18;1.00;;;16.60;99.90;;;;;;5057552;28;20552;-74
2022/09/25 05:58:23;;;;;;;3.33;1.27;;;16.60;99.90;;;;;;5067017;28;21487;-74
2022/09/25 06:00:49;;;;;;;2.90;0.98;;;16.60;99.90;;;;;;5060784;28;20118;-74
2022/09/25 06:03:15;;;;;;;2.78;1.00;;;16.70;99.90;;;;;;5074887;28;20039;-74
2022/09/25 06:05:43;;;;;;;3.72;1.10;;;16.70;99.90;;;;;;5061642;28;20035;-74
2022/09/25 06:08:09;;;;;;;3.67;1.25;;;16.70;99.90;;;;;;5077180;28;21005;-74
2022/09/25 06:10:34;;;;;;;3.10;1.25;;;16.70;99.90;;;;;;5076053;28;20124;-75
2022/09/25 06:13:03;;;;;;;3.17;1.08;;;16.70;99.90;;;;;;5057448;28;20033;-74
2022/09/25 06:15:35;;;;;;;3.45;1.15;;;16.80;99.90;;;;;;5060487;28;20492;-74
2022/09/25 06:18:01;;;;;;;2.70;1.10;;;16.80;99.90;;;;;;5065875;28;20553;-75
2022/09/25 06:20:27;;;;;;;3.78;0.90;;;16.80;99.90;;;;;;5066514;28;20170;-75
2022/09/25 06:22:57;;;;;;;4.75;1.15;;;16.80;99.90;;;;;;5066294;28;20033;-75
2022/09/25 06:25:25;;;;;;;2.50;0.90;;;16.80;99.90;;;;;;5061634;28;20372;-75
2022/09/25 06:27:55;;;;;;;3.88;1.02;;;16.80;99.90;;;;;;5050249;28;20095;-74
2022/09/25 06:30:24;;;;;;;4.45;0.85;;;16.80;99.90;;;;;;5065794;28;20060;-74
2022/09/25 06:32:58;;;;;;;2.78;1.20;;;16.80;99.90;;;;;;5061708;28;20399;-76
2022/09/25 06:35:25;;;;;;;2.75;0.90;;;16.70;99.90;;;;;;5058039;28;20366;-74
2022/09/25 06:37:51;;;;;;;4.43;0.90;;;16.70;99.90;;;;;;5058245;28;20033;-74
2022/09/25 06:40:17;;;;;;;3.45;1.20;;;16.60;99.90;;;;;;5058826;28;20680;-74
2022/09/25 06:42:44;;;;;;;5.13;0.80;;;16.60;99.90;;;;;;5071447;28;20154;-72
2022/09/25 06:45:10;;;;;;;2.45;0.88;;;16.70;99.90;;;;;;5059979;27;20098;-73
2022/09/25 06:47:36;;;;;;;3.28;0.90;;;16.70;99.90;;;;;;5058235;28;20037;-73
2022/09/25 06:50:02;;;;;;;3.45;0.90;;;16.70;99.90;;;;;;5058616;28;20041;-73
2022/09/25 06:52:28;;;;;;;3.30;1.02;;;16.90;99.90;;;;;;5075716;28;20112;-73
2022/09/25 06:54:54;;;;;;;4.65;1.77;;;16.90;99.90;;;;;;5058547;28;20057;-73
2022/09/25 06:57:20;;;;;;;2.30;0.80;;;17.00;99.90;;;;;;5057570;28;20059;-72
2022/09/25 06:59:45;;;;;;;4.18;1.40;;;17.00;99.90;;;;;;5044934;28;20044;-73
2022/09/25 07:04:55;;;;;;;2.83;0.80;;;17.10;99.90;;;;;;5059881;28;20090;-73
2022/09/25 07:07:23;;;;;;;2.13;0.70;;;17.10;99.90;;;;;;5059406;28;20066;-73
2022/09/25 07:09:49;;;;;;;3.03;0.95;;;17.10;99.90;;;;;;5062921;28;20164;-74
2022/09/25 07:12:16;;;;;;;2.92;1.00;;;17.10;99.90;;;;;;5059054;28;20119;-73
2022/09/25 07:14:43;;;;;;;3.03;1.10;;;17.00;99.90;;;;;;5060026;28;20116;-73
2022/09/25 07:17:09;;;;;;;2.53;0.80;;;17.00;99.90;;;;;;5059185;28;20025;-73
2022/09/25 07:19:35;;;;;;;4.97;0.95;;;17.00;99.90;;;;;;5061367;28;20103;-73
2022/09/25 07:22:00;;;;;;;3.05;0.90;;;17.10;99.90;;;;;;5058378;28;20025;-73
2022/09/25 07:24:26;;;;;;;2.67;0.90;;;17.00;99.90;;;;;;5060646;28;20512;-73
2022/09/25 07:26:52;;;;;;;3.90;1.13;;;17.00;99.90;;;;;;5054848;28;20082;-72
2022/09/25 07:29:18;;;;;;;3.53;1.02;;;17.10;99.90;;;;;;5062583;28;20032;-72
2022/09/25 07:31:44;;;;;;;2.90;1.00;;;17.30;99.90;;;;;;5057581;28;20446;-73
2022/09/25 07:34:11;;;;;;;4.85;1.20;;;17.30;99.90;;;;;;5061586;28;20033;-73
2022/09/25 07:36:39;;;;;;;3.92;1.00;;;17.40;99.90;;;;;;5060850;28;20064;-73
2022/09/25 07:39:05;;;;;;;3.83;1.05;;;17.40;99.90;;;;;;5058429;28;20480;-73
2022/09/25 07:41:31;;;;;;;5.07;1.15;;;17.50;99.90;;;;;;5057728;28;20041;-73
2022/09/25 07:43:57;;;;;;;2.47;0.80;;;17.70;99.90;;;;;;5062701;28;20618;-72
2022/09/25 07:46:25;;;;;;;3.38;0.93;;;17.90;99.90;;;;;;5054794;28;20041;-74
2022/09/25 07:48:51;;;;;;;4.35;1.00;;;17.90;99.90;;;;;;5072862;28;20037;-73
2022/09/25 07:51:17;;;;;;;4.55;1.13;;;18.10;99.90;;;;;;5060756;28;20060;-73
2022/09/25 07:53:44;;;;;;;;;;;18.20;99.90;;;;;;5058553;28;20058;-72
2022/09/25 07:56:11;;;;;;;3.65;0.95;;;18.20;99.90;;;;;;5058568;28;19922;-72
2022/09/25 07:58:37;;;;;;;3.65;1.15;;;18.20;99.90;;;;;;5060145;28;20071;-73
2022/09/25 08:01:04;;;;;;;;;;;18.20;99.90;;;;;;5058941;28;20350;-72
2022/09/25 08:03:30;;;;;;;3.63;1.02;;;18.30;99.90;;;;;;5059744;28;19924;-73
2022/09/25 08:06:01;;;;;;;3.00;1.10;;;18.40;99.90;;;;;;5072904;28;20032;-73
2022/09/25 08:08:29;;;;;;;3.35;0.90;;;18.60;99.90;;;;;;5051639;28;20033;-73
2022/09/25 08:11:05;;;;;;;4.15;1.05;;;18.70;99.90;;;;;;5055724;28;20060;-73
2022/09/25 08:13:32;;;;;;;4.60;1.17;;;18.80;99.90;;;;;;5056948;28;20064;-73
2022/09/25 08:16:00;;;;;;;;;;;18.90;99.90;;;;;;5061722;28;20098;-73
2022/09/25 08:18:26;;;;;;;3.80;1.17;;;19.10;99.90;;;;;;5061157;28;19916;-73
2022/09/25 08:20:51;;;;;;;3.58;1.27;;;19.40;99.90;;;;;;5060092;28;20035;-73
2022/09/25 08:23:17;;;;;;;4.15;1.10;;;20.70;99.90;;;;;;5056228;28;20375;-72
2022/09/25 08:25:48;;;;;;;3.13;1.05;;;21.90;99.90;;;;;;5054674;28;20063;-73
2022/09/25 08:28:14;;;;;;;5.30;1.50;;;22.30;99.90;;;;;;5053532;28;20106;-72
2022/09/25 08:30:42;;;;;;;4.95;1.08;;;23.00;99.90;;;;;;5060837;28;20048;-72
2022/09/25 08:33:11;;;;;;;3.65;1.13;;;22.00;99.90;;;;;;5057242;28;20040;-72
2022/09/25 08:35:39;;;;;;;2.58;1.00;;;22.20;99.90;;;;;;5059536;28;20069;-73
2022/09/25 08:38:06;;;;;;;2.53;1.20;;;22.20;99.90;;;;;;5059460;28;20080;-73
2022/09/25 08:40:35;;;;;;;3.67;1.10;;;22.40;99.90;;;;;;5059993;28;20492;-73
2022/09/25 08:43:01;;;;;;;4.95;1.10;;;22.10;99.90;;;;;;5059136;28;20032;-73
2022/09/25 08:51:27;;;;;;;2.60;1.05;;;21.50;99.90;;;;;;5058588;28;20098;-73
2022/09/25 08:53:53;;;;;;;3.45;1.00;;;21.50;99.90;;;;;;5058589;28;20403;-73
2022/09/25 08:56:19;;;;;;;4.53;1.40;;;21.70;99.90;;;;;;5060931;28;20032;-72
2022/09/25 08:58:55;;;;;;;2.88;0.90;;;21.50;99.90;;;;;;5056292;28;20041;-73
2022/09/25 09:01:25;;;;;;;3.25;1.30;;;21.70;99.90;;;;;;5059302;28;20041;-73
2022/09/25 09:04:09;;;;;;;3.05;1.20;;;22.80;99.90;;;;;;5061917;28;20033;-73
2022/09/25 09:06:37;;;;;;;3.70;1.23;;;22.90;99.90;;;;;;5046456;28;20037;-73
2022/09/25 09:09:29;;;;;;;3.05;1.40;;;23.90;99.90;;;;;;5060616;28;20577;-73
2022/09/25 09:12:06;;;;;;;4.78;1.38;;;25.10;98.80;;;;;;5058577;28;20123;-73
2022/09/25 09:14:40;;;;;;;3.97;1.17;;;24.60;98.50;;;;;;5078945;28;20036;-73
2022/09/25 09:17:19;;;;;;;3.60;1.42;;;24.00;99.20;;;;;;5059009;28;20048;-73
2022/09/25 09:19:52;;;;;;;3.80;2.00;;;24.20;99.40;;;;;;5052063;28;20168;-73
2022/09/25 09:22:30;;;;;;;3.45;1.48;;;24.00;99.20;;;;;;5054492;28;20047;-73
2022/09/25 09:25:08;;;;;;;4.20;1.15;;;23.50;99.90;;;;;;5043034;28;20041;-74
2022/09/25 09:27:58;;;;;;;3.33;1.40;;;22.80;99.90;;;;;;5049875;28;20037;-73
2022/09/25 09:30:41;;;;;;;3.15;1.75;;;22.20;99.90;;;;;;5055652;28;20389;-73
2022/09/25 09:33:22;;;;;;;2.72;1.10;;;21.80;99.90;;;;;;5055026;28;20044;-73
2022/09/25 09:36:24;;;;;;;3.03;1.20;;;21.60;99.90;;;;;;5059278;28;20366;-74
2022/09/25 09:39:17;;;;;;;5.05;1.52;;;21.40;99.90;;;;;;5035584;28;20037;-73
2022/09/25 09:42:10;;;;;;;4.57;1.42;;;21.10;99.90;;;;;;5063011;28;20029;-73
2022/09/25 09:45:02;;;;;;;5.90;1.40;;;21.20;99.90;;;;;;5030218;28;20055;-72
2022/09/25 09:47:50;;;;;;;3.58;1.25;;;21.40;99.90;;;;;;5044044;28;20393;-72
2022/09/25 09:50:24;;;;;;;3.33;1.70;;;21.50;99.90;;;;;;5038167;28;20095;-73
2022/09/25 09:52:57;;;;;;;5.00;1.40;;;21.50;99.90;;;;;;5032302;28;20099;-71
2022/09/25 09:55:34;;;;;;;2.92;1.17;;;21.80;99.90;;;;;;5038416;28;20091;-73
2022/09/25 09:58:07;;;;;;;3.80;1.33;;;21.90;99.90;;;;;;5060370;28;20041;-73
2022/09/25 10:00:34;;;;;;;3.53;1.20;;;21.90;99.90;;;;;;5037966;28;20087;-72
2022/09/25 10:03:32;;;;;;;;;;;21.80;99.90;;;;;;5056486;28;20405;-72
2022/09/25 10:06:01;;;;;;;4.80;1.30;;;21.70;99.90;;;;;;5046011;28;20284;-69
2022/09/25 10:08:29;;;;;;;6.68;1.50;;;21.90;99.90;;;;;;5051072;28;20158;-68
2022/09/25 10:10:57;;;;;;;5.20;1.58;;;22.20;99.90;;;;;;5055969;28;20078;-67
2022/09/25 10:13:36;;;;;;;3.33;1.42;;;22.80;99.90;;;;;;5058193;28;20132;-68
2022/09/25 10:16:10;;;;;;;4.00;1.30;;;23.20;99.90;;;;;;5057671;28;20469;-67
2022/09/25 10:18:53;;;;;;;4.80;1.30;;;23.20;99.90;;;;;;5057429;28;20540;-67
2022/09/25 10:21:22;;;;;;;5.68;1.58;;;22.40;99.90;;;;;;5061233;28;20044;-76
2022/09/25 10:23:53;;;;;;;7.47;1.48;;;22.40;99.90;;;;;;5075086;28;20040;-68
2022/09/25 10:26:26;;;;;;;4.55;1.42;;;22.50;99.90;;;;;;5054245;28;20085;-69
2022/09/25 10:28:56;;;;;;;4.15;1.42;;;22.50;99.90;;;;;;5055890;28;20075;-68
2022/09/25 10:31:28;;;;;;;3.53;1.73;;;22.40;99.90;;;;;;5059587;28;20044;-68
2022/09/25 10:34:21;;;;;;;3.90;1.45;;;22.70;99.90;;;;;;5057837;28;20125;-68
2022/09/25 10:36:52;;;;;;;2.85;1.42;;;23.10;99.90;;;;;;5049880;28;20113;-67
2022/09/25 10:39:58;;;;;;;3.10;1.67;;;23.00;99.90;;;;;;5073641;28;20186;-69
2022/09/25 10:42:39;;;;;;;2.92;1.42;;;23.10;99.90;;;;;;5050196;28;20067;-68
2022/09/25 10:45:30;;;;;;;4.38;1.52;;;23.70;99.90;;;;;;5049906;28;20036;-67
2022/09/25 10:50:41;;;;;;;;;;;23.80;99.90;;;;;;5049819;28;20047;-67
2022/09/25 10:53:29;;;;;;;4.13;1.70;;;24.50;99.90;;;;;;5057039;28;19916;-67
2022/09/25 10:56:01;;;;;;;4.18;1.67;;;24.40;99.90;;;;;;5056642;28;20036;-67
2022/09/25 10:58:38;;;;;;;4.80;1.95;;;24.20;99.80;;;;;;5049020;28;20082;-68
2022/09/25 11:01:12;;;;;;;4.78;1.67;;;24.50;99.90;;;;;;5034762;28;20040;-67
2022/09/25 11:04:07;;;;;;;3.25;1.60;;;24.80;99.40;;;;;;5054953;28;20028;-68
2022/09/25 11:06:34;;;;;;;6.22;2.40;;;24.70;99.90;;;;;;5033250;28;20389;-71
2022/09/25 11:09:03;;;;;;;5.25;2.08;;;24.20;99.90;;;;;;5053014;28;20035;-68
2022/09/25 11:11:30;;;;;;;3.90;1.80;;;23.80;99.80;;;;;;5054571;28;20543;-67
2022/09/25 11:13:58;;;;;;;;;;;23.80;99.90;;;;;;5042941;28;20048;-67
2022/09/25 11:16:49;;;;;;;3.45;1.77;;;23.00;99.90;;;;;;5056965;28;20265;-68
2022/09/25 11:19:21;;;;;;;;;;;22.80;99.90;;;;;;5048220;28;20385;-68
2022/09/25 11:21:56;;;;;;;4.07;1.40;;;23.00;99.90;;;;;;5052139;28;20261;-67
2022/09/25 11:24:25;;;;;;;3.75;1.60;;;23.00;99.90;;;;;;5057512;28;20188;-68
2022/09/25 11:26:57;;;;;;;3.55;1.40;;;22.80;99.90;;;;;;5064813;27;20118;-69
2022/09/25 11:30:09;;;;;;;3.90;1.70;;;23.10;99.90;;;;;;5050658;28;20613;-68
2022/09/25 11:32:35;;;;;;;4.20;1.48;;;23.70;99.90;;;;;;5049438;28;20048;-68
2022/09/25 11:35:03;;;;;;;3.97;1.75;;;23.80;99.90;;;;;;5056811;28;20037;-68
2022/09/25 11:37:33;;;;;;;4.15;1.40;;;23.60;99.90;;;;;;5036676;28;20053;-68
2022/09/25 11:43:03;;;;;;;4.90;1.67;;;23.20;99.90;;;;;;5037307;28;20075;-69
2022/09/25 11:45:47;;;;;;;4.53;2.28;;;23.40;99.90;;;;;;5034836;28;20036;-68
2022/09/25 11:48:49;;;;;;;5.10;2.67;;;22.60;99.90;;;;;;5038323;28;20049;-71
2022/09/25 11:51:47;;;;;;;5.05;2.25;;;24.00;99.90;;;;;;5035990;28;20132;-68
2022/09/25 11:54:36;;;;;;;6.60;2.88;;;24.00;99.90;;;;;;5036016;28;20059;-68
2022/09/25 11:58:01;;;;;;;5.38;2.75;;;25.40;99.90;;;;;;5038653;28;20037;-68
2022/09/25 12:00:45;;;;;;;5.38;3.15;;;25.70;99.70;;;;;;5016089;28;20124;-67
2022/09/25 12:03:14;;;;;;;6.25;2.83;;;26.60;99.30;;;;;;5052453;28;20506;-68
2022/09/25 12:05:51;;;;;;;5.13;3.47;;;27.10;98.50;;;;;;5055667;28;20416;-67
2022/09/25 12:08:43;;;;;;;5.47;2.20;;;27.60;97.40;;;;;;5056493;28;20043;-68
2022/09/25 12:11:27;;;;;;;6.55;2.63;;;26.70;98.00;;;;;;5054086;28;20431;-68
2022/09/25 12:14:05;;;;;;;5.70;2.92;;;26.00;98.90;;;;;;5052916;28;20494;-69
2022/09/25 12:16:57;;;;;;;5.38;2.78;;;26.40;99.10;;;;;;5034611;28;20052;-68
2022/09/25 12:19:47;;;;;;;5.57;3.00;;;26.90;98.80;;;;;;5031820;28;20061;-68
2022/09/25 12:22:47;;;;;;;5.20;2.78;;;27.80;96.90;;;;;;5036492;28;20068;-68
2022/09/25 12:25:46;;;;;;;6.60;2.95;;;27.30;97.70;;;;;;5034231;28;20066;-67
2022/09/25 12:28:45;;;;;;;5.40;2.35;;;27.60;97.10;;;;;;5053039;28;20040;-68
2022/09/25 12:31:33;;;;;;;5.25;3.25;;;26.60;97.90;;;;;;5034747;28;20041;-68
2022/09/25 12:34:41;;;;;;;4.95;2.95;;;25.20;99.40;;;;;;5055318;28;20079;-69
2022/09/25 12:37:21;;;;;;;6.53;3.17;;;27.20;98.60;;;;;;5049177;28;20087;-70
2022/09/25 12:40:02;;;;;;;6.30;3.03;;;28.40;97.70;;;;;;5053122;28;20028;-68
2022/09/25 12:43:01;;;;;;;6.45;2.90;;;28.90;97.00;;;;;;5058610;28;20047;-69
2022/09/25 12:45:53;;;;;;;4.13;2.60;;;28.20;97.30;;;;;;5051867;28;20044;-69
2022/09/25 12:48:30;;;;;;;5.80;2.83;;;27.50;97.70;;;;;;5055229;28;20048;-69
2022/09/25 12:51:02;;;;;;;5.28;2.97;;;27.50;98.10;;;;;;5054185;28;20037;-69
2022/09/25 12:53:30;;;;;;;5.97;3.03;;;28.50;97.60;;;;;;5066343;28;20040;-69
2022/09/25 12:56:18;;;;;;;4.32;2.83;;;27.60;96.30;;;;;;5035122;28;20049;-69
2022/09/25 12:58:58;;;;;;;5.70;2.92;;;27.10;97.00;;;;;;5066464;28;20512;-69
2022/09/25 13:02:02;;;;;;;5.15;3.05;;;26.80;96.80;;;;;;5062499;28;20051;-68
2022/09/25 13:04:48;;;;;;;4.63;2.75;;;26.20;98.40;;;;;;5029119;28;20090;-69
2022/09/25 13:07:45;;;;;;;5.07;3.10;;;25.00;98.90;;;;;;5036693;28;20041;-68
2022/09/25 13:10:36;;;;;;;5.13;2.47;;;24.90;99.90;;;;;;5030751;28;20033;-71
2022/09/25 13:13:04;;;;;;;5.10;2.67;;;26.20;99.30;;;;;;5038252;28;20036;-69
2022/09/25 13:15:34;;;;;;;5.30;2.35;;;26.70;98.70;;;;;;5046999;28;20515;-74
2022/09/25 13:18:01;;;;;;;3.90;2.22;;;26.70;98.50;;;;;;5035718;28;20051;-73
2022/09/25 13:20:27;;;;;;;3.78;1.90;;;26.20;99.00;;;;;;5031341;28;20496;-73
2022/09/25 13:23:12;;;;;;;5.32;2.78;;;27.10;98.30;;;;;;5036243;28;20060;-74
2022/09/25 13:25:54;;;;;;;3.80;1.73;;;26.70;98.20;;;;;;5037221;28;20619;-73
2022/09/25 13:28:24;;;;;;;4.35;1.73;;;27.50;98.00;;;;;;5039344;28;20037;-73
2022/09/25 13:31:27;;;;;;;4.70;2.58;;;27.70;98.20;;;;;;5042752;28;20037;-73
2022/09/25 13:34:04;;;;;;;4.05;2.40;;;28.10;97.20;;;;;;5070121;28;20044;-72
2022/09/25 13:37:07;;;;;;;6.30;2.08;;;28.30;96.60;;;;;;5066618;28;20029;-72
2022/09/25 13:42:36;;;;;;;5.60;1.65;;;28.00;96.70;;;;;;5048016;28;20090;-73
2022/09/25 13:45:31;;;;;;;4.50;1.75;;;27.50;96.80;;;;;;5055485;28;20040;-73
2022/09/25 13:48:09;;;;;;;5.53;2.40;;;27.30;97.70;;;;;;5035438;28;20656;-73